Asheville Regional Airport (AVL)

 

Airport Diagram
Current Weather/Forecast (VFR Conditions)
METAR KAVL 260520Z AUTO 36007KT 10SM SCT027 BKN040 BKN065 10/07 A2998 RMK AO2 T01000072
TAF KAVL 252320Z 2600/2624 34007KT P6SM -SHRA SCT008 OVC040 FM260400 34008KT P6SM VCSH BKN025 FM261200 34010KT P6SM BKN035 FM261500 01010KT P6SM BKN040

All Charts
General
Chart Name Download
AIRPORT DIAGRAM
TAKEOFF MINIMUMS
ALTERNATE MINIMUMS

Departures
Chart Name Download
ASHEVILLE FIVE

Approaches
Chart Name Download
ILS OR LOC RWY 35
RNAV (GPS) RWY 17
RNAV (GPS) RWY 35


Inbound Traffic (Arrivals)

No inbound traffic.


Outbound Traffic (Departures)

No outbound traffic.